This is the latest recevied weather packets stored in our database for station/object KC3ROS. If no packets are shown the sender has not sent any weather packets the latest 10 day(s).
| Time | Temp. | Humidity | Pressure | Rain* | Wind** | Luminosity | Snow |
|---|---|---|---|---|---|---|---|
| 1778012846 | 21.11° C | 57% | 1006.5 hPa | 0 mm | - | 132 W/m² | - |
| 1778012542 | 21.11° C | 57% | 1006.7 hPa | 0 mm | - | 157 W/m² | - |
| 1778012239 | 21.11° C | 58% | 1006.7 hPa | 0 mm | - | 175 W/m² | - |
| 1778011937 | 21.11° C | 57% | 1006.7 hPa | 0 mm | - | 144 W/m² | - |
| 1778011635 | 21.11° C | 58% | 1006.6 hPa | 0 mm | - | 153 W/m² | - |
| 1778011331 | 21.11° C | 58% | 1006.7 hPa | 0 mm | - | 168 W/m² | - |
| 1778011027 | 20.56° C | 58% | 1006.8 hPa | 0 mm | - | 124 W/m² | - |
| 1778010724 | 21.11° C | 57% | 1006.9 hPa | 0 mm | - | 73 W/m² | - |
| 1778010422 | 21.11° C | 59% | 1006.8 hPa | 0 mm | - | 74 W/m² | - |
| 1778010117 | 21.11° C | 57% | 1007 hPa | 0 mm | - | 91 W/m² | - |
| 1778009814 | 21.11° C | 56% | 1007 hPa | 0 mm | - | 93 W/m² | - |
| 1778009511 | 21.11° C | 58% | 1007.2 hPa | 0 mm | - | 58 W/m² | - |
| 1778009210 | 21.11° C | 57% | 1007.2 hPa | 0 mm | - | 76 W/m² | - |
| 1778008907 | 21.11° C | 56% | 1007.3 hPa | 0 mm | - | 61 W/m² | - |
| 1778008605 | 21.11° C | 56% | 1007.1 hPa | 0 mm | - | 104 W/m² | - |
| 1778008303 | 21.11° C | 56% | 1007.3 hPa | 0 mm | - | 125 W/m² | - |
| 1778007999 | 21.11° C | 56% | 1007.2 hPa | 0 mm | - | 139 W/m² | - |
| 1778007699 | 21.11° C | 57% | 1007.3 hPa | 0 mm | - | 203 W/m² | - |
| 1778007396 | 21.11° C | 57% | 1007.2 hPa | 0 mm | - | 154 W/m² | - |
| 1778007092 | 21.11° C | 56% | 1007.3 hPa | 0 mm | - | 119 W/m² | - |
| 1778006789 | 21.11° C | 56% | 1007.5 hPa | 0 mm | - | 103 W/m² | - |
| 1778006486 | 21.11° C | 57% | 1007.3 hPa | 0 mm | - | 116 W/m² | - |
| 1778006182 | 21.67° C | 54% | 1007.3 hPa | 0 mm | - | 150 W/m² | - |
| 1778005880 | 22.78° C | 52% | 1007.1 hPa | 0 mm | - | 543 W/m² | - |
| 1778005576 | 21.67° C | 53% | 1007.3 hPa | 0 mm | - | 804 W/m² | - |
* Rain latest hour (hover to see other rain measurements)
** Current wind speed in m/s (hover to see current wind gust speed)